Time;durP1;ratioP1;P1;durP2;ratioP2;P2;SDS_P1;SDS_P2;PMS_P1;PMS_P2;Temp;Humidity;BMP_temperature;BMP_pressure;BME280_temperature;BME280_humidity;BME280_pressure;Samples;Min_cycle;Max_cycle;Signal;HPM_P1;HPM_P2
2022/09/03 00:02:26;;;;;;;1.70;1.60;;;5.80;99.90;;;;;;5085577;28;20044;-67
2022/09/03 00:05:18;;;;;;;1.60;0.98;;;5.70;99.90;;;;;;5084676;28;20358;-65
2022/09/03 00:07:47;;;;;;;1.02;0.95;;;5.70;99.90;;;;;;5086254;28;20113;-69
2022/09/03 00:10:24;;;;;;;1.43;1.07;;;5.70;99.90;;;;;;5080247;28;20097;-65
2022/09/03 00:12:56;;;;;;;2.17;0.85;;;5.70;99.90;;;;;;5082636;28;20342;-65
2022/09/03 00:15:23;;;;;;;1.98;0.70;;;5.70;99.90;;;;;;5079175;28;20036;-64
2022/09/03 00:18:12;;;;;;;3.15;1.13;;;5.60;99.90;;;;;;5087681;28;20055;-71
2022/09/03 00:20:51;;;;;;;1.85;1.00;;;5.60;99.90;;;;;;5087000;28;20189;-73
2022/09/03 00:23:25;;;;;;;1.05;0.80;;;5.60;99.90;;;;;;5088321;28;20044;-65
2022/09/03 00:26:12;;;;;;;0.70;0.70;;;5.60;99.90;;;;;;5087236;28;20043;-72
2022/09/03 00:28:58;;;;;;;1.00;1.00;;;5.60;99.90;;;;;;5087697;28;20048;-66
2022/09/03 00:31:36;;;;;;;1.48;0.68;;;5.50;99.90;;;;;;5090173;28;20067;-66
2022/09/03 00:34:26;;;;;;;0.80;0.70;;;5.50;99.90;;;;;;5084675;28;20685;-67
2022/09/03 00:36:53;;;;;;;2.07;1.27;;;5.50;99.90;;;;;;5075981;28;21043;-74
2022/09/03 00:39:23;;;;;;;1.60;1.48;;;5.40;99.90;;;;;;5074842;28;20687;-65
2022/09/03 00:42:12;;;;;;;1.02;1.00;;;5.40;99.90;;;;;;5083622;28;20081;-65
2022/09/03 00:45:01;;;;;;;2.05;1.35;;;5.40;99.90;;;;;;5084869;28;20071;-67
2022/09/03 00:47:39;;;;;;;0.88;0.70;;;5.30;99.90;;;;;;5086861;28;20462;-66
2022/09/03 00:50:37;;;;;;;1.38;1.02;;;5.40;99.90;;;;;;5071599;28;20127;-65
2022/09/03 00:53:27;;;;;;;0.73;0.63;;;5.30;99.90;;;;;;5060661;28;20044;-65
2022/09/03 00:56:14;;;;;;;1.15;0.88;;;5.30;99.90;;;;;;5068684;28;20067;-65
2022/09/03 00:59:00;;;;;;;1.13;0.80;;;5.30;99.90;;;;;;5067122;28;20047;-64
2022/09/03 01:02:00;;;;;;;1.38;0.47;;;5.30;99.90;;;;;;5069401;28;20142;-67
2022/09/03 01:04:43;;;;;;;0.70;0.70;;;5.30;99.90;;;;;;5062620;28;20119;-65
2022/09/03 01:07:32;;;;;;;0.57;0.50;;;5.30;99.90;;;;;;5067593;28;20044;-64
2022/09/03 01:10:35;;;;;;;2.25;0.80;;;5.30;99.90;;;;;;5067106;28;20044;-64
2022/09/03 01:13:10;;;;;;;0.85;0.65;;;5.30;99.90;;;;;;5085425;28;20089;-65
2022/09/03 01:16:02;;;;;;;0.63;0.63;;;5.30;99.90;;;;;;5098355;28;20075;-69
2022/09/03 01:18:47;;;;;;;0.73;0.73;;;5.30;99.90;;;;;;5088487;28;20134;-66
2022/09/03 01:21:47;;;;;;;1.35;0.70;;;5.30;99.90;;;;;;5087751;28;20071;-67
2022/09/03 01:24:48;;;;;;;2.00;0.63;;;5.30;99.90;;;;;;5069876;28;20045;-68
2022/09/03 01:27:47;;;;;;;0.50;0.50;;;5.30;99.90;;;;;;5065740;28;20145;-71
2022/09/03 01:30:18;;;;;;;2.05;1.02;;;5.30;99.90;;;;;;5063963;28;20045;-66
2022/09/03 01:32:52;;;;;;;0.73;0.60;;;5.30;99.90;;;;;;5064183;28;20171;-65
2022/09/03 01:35:37;;;;;;;1.00;0.70;;;5.30;99.90;;;;;;5079601;28;20423;-65
2022/09/03 01:38:54;;;;;;;0.68;0.63;;;5.30;99.90;;;;;;5087996;28;20043;-67
2022/09/03 01:42:15;;;;;;;0.45;0.45;;;5.20;99.90;;;;;;5002225;28;20059;-68
2022/09/03 01:44:52;;;;;;;1.08;0.93;;;5.20;99.90;;;;;;4995551;28;20100;-70
2022/09/03 01:47:36;;;;;;;1.00;1.00;;;5.20;99.90;;;;;;5065589;28;20048;-65
2022/09/03 01:50:32;;;;;;;1.80;0.65;;;5.10;99.90;;;;;;5067576;28;20113;-65
2022/09/03 01:53:31;;;;;;;0.80;0.50;;;5.10;99.90;;;;;;5060624;28;20629;-69
2022/09/03 01:56:17;;;;;;;0.47;0.47;;;5.10;99.90;;;;;;5047700;28;20048;-66
2022/09/03 01:58:55;;;;;;;0.82;0.73;;;5.10;99.90;;;;;;5069375;28;20047;-69
2022/09/03 02:01:31;;;;;;;0.98;0.82;;;5.10;99.90;;;;;;5054929;28;20569;-66
2022/09/03 02:03:59;;;;;;;1.10;0.68;;;5.10;99.90;;;;;;5066281;28;20048;-66
2022/09/03 02:06:30;;;;;;;0.70;0.68;;;5.10;99.90;;;;;;5061776;28;20076;-65
2022/09/03 02:08:57;;;;;;;1.45;1.02;;;5.10;99.90;;;;;;5065623;28;20044;-67
2022/09/03 02:11:24;;;;;;;1.10;0.70;;;5.10;99.90;;;;;;5068575;28;20066;-67
2022/09/03 02:13:54;;;;;;;0.80;0.80;;;5.10;99.90;;;;;;5067340;28;20464;-68
2022/09/03 02:16:24;;;;;;;0.43;0.43;;;5.10;99.90;;;;;;5064942;28;20044;-64
2022/09/03 02:18:59;;;;;;;1.25;0.70;;;5.10;99.90;;;;;;5066282;28;20048;-69
2022/09/03 02:21:33;;;;;;;0.50;0.50;;;5.10;99.90;;;;;;5066648;28;20466;-65
2022/09/03 02:24:02;;;;;;;0.90;0.70;;;5.10;99.90;;;;;;5066890;28;21207;-70
2022/09/03 02:26:28;;;;;;;1.17;0.98;;;5.10;99.90;;;;;;5066035;28;20068;-65
2022/09/03 02:28:56;;;;;;;0.70;0.70;;;5.10;99.90;;;;;;5062141;28;20060;-65
2022/09/03 02:31:23;;;;;;;0.50;0.50;;;5.10;99.90;;;;;;5067374;28;20064;-71
2022/09/03 02:33:51;;;;;;;0.80;0.70;;;5.10;99.90;;;;;;5065915;28;20060;-65
2022/09/03 02:36:24;;;;;;;7.25;1.60;;;5.10;99.90;;;;;;5067896;28;20136;-66
2022/09/03 02:38:53;;;;;;;0.43;0.43;;;5.10;99.90;;;;;;5053138;28;20153;-64
2022/09/03 02:41:22;;;;;;;1.98;0.70;;;5.00;99.90;;;;;;5060781;28;20052;-65
2022/09/03 02:44:05;;;;;;;0.52;0.52;;;5.00;99.90;;;;;;5066953;28;20045;-67
2022/09/03 02:46:38;;;;;;;3.00;0.70;;;5.00;99.90;;;;;;5062018;28;20568;-70
2022/09/03 02:49:06;;;;;;;0.65;0.57;;;5.00;99.90;;;;;;5054328;28;20071;-66
2022/09/03 02:51:41;;;;;;;0.80;0.70;;;5.00;99.90;;;;;;5062495;28;20048;-68
2022/09/03 02:54:09;;;;;;;0.50;0.50;;;5.00;99.90;;;;;;5066759;28;20048;-64
2022/09/03 02:56:37;;;;;;;0.50;0.50;;;5.00;99.90;;;;;;5064880;28;20108;-72
2022/09/03 02:59:05;;;;;;;0.70;0.70;;;5.00;99.90;;;;;;5066975;28;20083;-64
2022/09/03 03:01:32;;;;;;;1.83;1.25;;;5.00;99.90;;;;;;5066425;28;20119;-69
2022/09/03 03:03:59;;;;;;;0.47;0.47;;;5.00;99.90;;;;;;5064356;28;20041;-74
2022/09/03 03:06:27;;;;;;;0.75;0.60;;;5.00;99.90;;;;;;5062032;28;20702;-66
2022/09/03 03:08:54;;;;;;;0.65;0.65;;;5.00;99.90;;;;;;5056246;28;20441;-64
2022/09/03 03:11:24;;;;;;;0.88;0.80;;;5.00;99.90;;;;;;5054729;28;20553;-70
2022/09/03 03:13:51;;;;;;;0.73;0.73;;;4.90;99.90;;;;;;5066200;28;20424;-71
2022/09/03 03:16:18;;;;;;;1.45;1.35;;;4.90;99.90;;;;;;5063794;28;20135;-66
2022/09/03 03:18:45;;;;;;;1.33;0.75;;;4.90;99.90;;;;;;5064332;28;20048;-64
2022/09/03 03:21:15;;;;;;;0.95;0.70;;;5.00;99.90;;;;;;5058925;28;20183;-66
2022/09/03 03:23:42;;;;;;;0.70;0.70;;;5.00;99.90;;;;;;5065591;28;20524;-66
2022/09/03 03:26:12;;;;;;;1.10;0.57;;;5.00;99.90;;;;;;5063272;28;20121;-65
2022/09/03 03:28:41;;;;;;;0.83;0.70;;;5.00;99.90;;;;;;5062290;28;20068;-68
2022/09/03 03:31:13;;;;;;;0.80;0.75;;;5.00;99.90;;;;;;5056384;28;20036;-64
2022/09/03 03:33:41;;;;;;;0.98;0.88;;;5.00;99.90;;;;;;5065349;28;20045;-68
2022/09/03 03:36:12;;;;;;;0.30;0.30;;;5.00;99.90;;;;;;5061253;28;20497;-67
2022/09/03 03:38:40;;;;;;;0.40;0.40;;;4.90;99.90;;;;;;5080674;28;20135;-74
2022/09/03 03:41:15;;;;;;;1.35;0.70;;;4.90;99.90;;;;;;5086676;28;20617;-64
2022/09/03 03:43:43;;;;;;;1.02;0.80;;;4.90;99.90;;;;;;5086134;28;20133;-67
2022/09/03 03:46:11;;;;;;;2.83;0.80;;;4.90;99.90;;;;;;5090238;28;20072;-66
2022/09/03 03:48:38;;;;;;;0.57;0.50;;;4.80;99.90;;;;;;5089210;27;20491;-72
2022/09/03 03:51:08;;;;;;;1.58;0.80;;;4.80;99.90;;;;;;5094475;28;20052;-64
2022/09/03 03:53:38;;;;;;;1.88;0.75;;;4.80;99.90;;;;;;5083415;28;20500;-64
2022/09/03 03:56:06;;;;;;;;;;;4.90;99.90;;;;;;5090949;28;20542;-64
2022/09/03 03:58:34;;;;;;;1.75;0.70;;;4.80;99.90;;;;;;5085684;28;20361;-65
2022/09/03 04:01:09;;;;;;;1.00;0.50;;;4.90;99.90;;;;;;5089349;28;20142;-65
2022/09/03 04:03:37;;;;;;;0.80;0.60;;;4.90;99.90;;;;;;5090144;28;20349;-67
2022/09/03 04:06:05;;;;;;;1.55;0.88;;;4.90;99.90;;;;;;5087676;28;20447;-68
2022/09/03 04:08:36;;;;;;;0.60;0.60;;;4.90;99.90;;;;;;5081572;28;20044;-64
2022/09/03 04:11:05;;;;;;;0.80;0.55;;;4.90;99.90;;;;;;5089248;28;20179;-66
2022/09/03 04:13:38;;;;;;;0.50;0.50;;;5.00;99.90;;;;;;5084611;28;20067;-64
2022/09/03 04:16:07;;;;;;;0.40;0.40;;;5.00;99.90;;;;;;5089688;28;20051;-64
2022/09/03 04:18:35;;;;;;;0.57;0.57;;;5.00;99.90;;;;;;5088087;28;20169;-67
2022/09/03 04:21:09;;;;;;;1.85;0.65;;;5.00;99.90;;;;;;5089530;28;20048;-64
2022/09/03 04:23:41;;;;;;;0.85;0.75;;;5.00;99.90;;;;;;5088213;28;20103;-77
2022/09/03 04:26:10;;;;;;;1.08;0.73;;;5.10;99.90;;;;;;5088086;28;20149;-64
2022/09/03 04:28:37;;;;;;;0.80;0.63;;;5.10;99.90;;;;;;5087585;28;20047;-73
2022/09/03 04:31:07;;;;;;;1.05;0.95;;;5.20;99.90;;;;;;5089586;28;20140;-64
2022/09/03 04:33:36;;;;;;;4.22;1.60;;;5.20;99.90;;;;;;5088980;28;20060;-64
2022/09/03 04:36:08;;;;;;;0.93;0.85;;;5.30;99.90;;;;;;5089462;28;20040;-65
2022/09/03 04:38:38;;;;;;;1.48;1.38;;;5.30;99.90;;;;;;5087618;28;20068;-71
2022/09/03 04:41:06;;;;;;;0.93;0.73;;;5.30;99.90;;;;;;5082569;28;20524;-68
2022/09/03 04:43:33;;;;;;;0.73;0.73;;;5.30;99.90;;;;;;5089082;28;20040;-64
2022/09/03 04:46:03;;;;;;;0.80;0.80;;;5.40;99.90;;;;;;5088572;28;20052;-66
2022/09/03 04:48:31;;;;;;;0.70;0.70;;;5.40;99.90;;;;;;5088788;28;20113;-64
2022/09/03 04:51:08;;;;;;;0.70;0.70;;;5.50;99.90;;;;;;5087203;28;20082;-68
2022/09/03 04:53:40;;;;;;;0.65;0.65;;;5.50;99.90;;;;;;5086680;28;20043;-65
2022/09/03 04:56:21;;;;;;;2.72;0.98;;;5.50;99.90;;;;;;5080404;28;20048;-65
2022/09/03 04:58:54;;;;;;;1.35;0.85;;;5.60;99.90;;;;;;5080987;28;20071;-67
2022/09/03 05:01:23;;;;;;;0.85;0.82;;;5.60;99.90;;;;;;5086204;28;20071;-66
2022/09/03 05:03:51;;;;;;;1.48;0.80;;;5.70;99.90;;;;;;5078152;28;20062;-69
2022/09/03 05:06:18;;;;;;;0.77;0.50;;;5.80;99.90;;;;;;5078377;28;20051;-68
2022/09/03 05:08:49;;;;;;;1.42;0.60;;;5.90;99.90;;;;;;5087409;27;20137;-65
2022/09/03 05:11:16;;;;;;;1.95;0.98;;;6.00;99.90;;;;;;5087234;28;20101;-65
2022/09/03 05:13:47;;;;;;;1.25;1.13;;;6.10;99.90;;;;;;5086370;28;20041;-64
2022/09/03 05:16:15;;;;;;;0.85;0.80;;;6.30;99.90;;;;;;5085194;28;20073;-66
2022/09/03 05:18:43;;;;;;;2.67;1.10;;;6.50;99.90;;;;;;5085087;28;20055;-69
2022/09/03 05:21:13;;;;;;;2.03;1.40;;;6.60;99.90;;;;;;5086185;28;20079;-70
2022/09/03 05:23:45;;;;;;;2.20;0.90;;;6.80;99.90;;;;;;5086499;28;20127;-71
2022/09/03 05:26:15;;;;;;;1.67;1.08;;;7.00;99.90;;;;;;5086643;28;20047;-65
2022/09/03 05:28:43;;;;;;;2.83;1.20;;;7.10;99.90;;;;;;5083307;28;20079;-75
2022/09/03 05:31:16;;;;;;;1.13;1.02;;;7.30;99.90;;;;;;5068815;28;20104;-74
2022/09/03 05:33:48;;;;;;;3.85;1.00;;;7.40;99.90;;;;;;5086868;28;20048;-68
2022/09/03 05:36:18;;;;;;;1.70;1.60;;;7.50;99.90;;;;;;5081926;28;20044;-71
2022/09/03 05:38:46;;;;;;;1.25;0.80;;;7.60;99.90;;;;;;5080576;28;20105;-68
2022/09/03 05:41:14;;;;;;;2.60;1.08;;;7.70;99.90;;;;;;5090591;28;20108;-65
2022/09/03 05:43:42;;;;;;;1.48;0.82;;;7.90;99.90;;;;;;5081795;28;20732;-71
2022/09/03 05:46:17;;;;;;;1.10;0.90;;;7.90;99.90;;;;;;5086406;28;20071;-68
2022/09/03 05:48:44;;;;;;;1.42;0.90;;;8.00;99.90;;;;;;5092720;27;20511;-65
2022/09/03 05:51:16;;;;;;;1.17;1.02;;;8.10;99.90;;;;;;5088450;28;20060;-70
2022/09/03 05:53:45;;;;;;;1.05;0.88;;;8.20;99.90;;;;;;5088827;28;20124;-69
2022/09/03 05:56:17;;;;;;;0.77;0.73;;;8.20;99.90;;;;;;5091362;28;20101;-70
2022/09/03 05:58:47;;;;;;;1.77;0.82;;;8.30;99.90;;;;;;5084081;28;21128;-65
2022/09/03 06:01:25;;;;;;;3.67;0.95;;;8.40;99.90;;;;;;5086145;28;20131;-64
2022/09/03 06:03:57;;;;;;;2.83;1.10;;;8.50;99.90;;;;;;5085004;28;20044;-68
2022/09/03 06:06:26;;;;;;;1.40;0.70;;;8.60;99.90;;;;;;5087857;28;20476;-66
2022/09/03 06:08:58;;;;;;;0.80;0.70;;;8.70;99.90;;;;;;5086664;28;22069;-64
2022/09/03 06:11:28;;;;;;;0.60;0.60;;;8.70;99.90;;;;;;5091674;28;20085;-68
2022/09/03 06:14:04;;;;;;;1.15;0.90;;;8.80;99.90;;;;;;5087972;28;20493;-64
2022/09/03 06:16:33;;;;;;;1.50;0.88;;;8.90;99.90;;;;;;5084925;28;20043;-64
2022/09/03 06:19:00;;;;;;;1.77;1.15;;;8.90;99.90;;;;;;5088605;27;20032;-67
2022/09/03 06:21:28;;;;;;;0.85;0.85;;;9.00;99.90;;;;;;5090313;28;20089;-65
2022/09/03 06:23:56;;;;;;;1.30;0.70;;;9.10;99.90;;;;;;5089740;27;20051;-64
2022/09/03 06:26:27;;;;;;;0.82;0.75;;;9.10;99.90;;;;;;5089768;28;20402;-70
2022/09/03 06:28:56;;;;;;;2.50;1.20;;;9.20;99.90;;;;;;5085401;28;20055;-68
2022/09/03 06:31:23;;;;;;;0.93;0.93;;;9.20;99.90;;;;;;5066288;28;20162;-67
2022/09/03 06:33:53;;;;;;;0.90;0.90;;;9.30;99.90;;;;;;5087620;28;20130;-65
2022/09/03 06:36:22;;;;;;;0.87;0.77;;;9.40;99.90;;;;;;5089117;28;20507;-76
2022/09/03 06:38:52;;;;;;;1.08;0.77;;;9.50;99.90;;;;;;5066926;28;20130;-73
2022/09/03 06:41:24;;;;;;;2.05;1.23;;;9.70;99.90;;;;;;5086526;27;20123;-64
2022/09/03 06:44:01;;;;;;;0.73;0.73;;;9.80;99.90;;;;;;5084058;28;20048;-68
2022/09/03 06:46:37;;;;;;;1.63;1.52;;;9.90;99.90;;;;;;5087136;28;20036;-67
2022/09/03 06:49:05;;;;;;;1.83;1.30;;;10.00;99.90;;;;;;5082627;28;20073;-68
2022/09/03 06:51:32;;;;;;;1.30;1.20;;;10.20;99.90;;;;;;5080582;28;20044;-64
2022/09/03 06:54:01;;;;;;;2.10;1.90;;;10.30;99.90;;;;;;5086919;28;20055;-70
2022/09/03 06:56:29;;;;;;;1.53;1.43;;;10.40;99.90;;;;;;5087752;28;20047;-65
2022/09/03 06:59:04;;;;;;;1.58;1.05;;;10.50;99.90;;;;;;5086679;28;20375;-66
2022/09/03 07:01:32;;;;;;;0.77;0.60;;;10.60;99.90;;;;;;5086895;28;20043;-68
2022/09/03 07:04:02;;;;;;;2.58;0.90;;;10.70;99.90;;;;;;5084617;28;20126;-64
2022/09/03 07:06:32;;;;;;;1.13;0.80;;;10.80;99.90;;;;;;5086395;28;20052;-63
2022/09/03 07:08:59;;;;;;;0.77;0.77;;;10.90;99.90;;;;;;5067862;28;20265;-63
2022/09/03 07:11:30;;;;;;;0.88;0.60;;;11.00;99.90;;;;;;5087018;28;20455;-70
2022/09/03 07:13:57;;;;;;;;;;;11.10;99.90;;;;;;5089157;27;20440;-64
2022/09/03 07:16:33;;;;;;;1.35;0.70;;;11.20;99.90;;;;;;5089516;28;19920;-66
2022/09/03 07:19:02;;;;;;;0.40;0.30;;;11.20;99.90;;;;;;5086763;28;20155;-70
2022/09/03 07:21:32;;;;;;;1.08;0.60;;;11.30;99.90;;;;;;5087028;28;20378;-72
2022/09/03 07:23:59;;;;;;;;;;;11.40;99.90;;;;;;5085811;28;20465;-64
2022/09/03 07:26:29;;;;;;;0.80;0.55;;;11.50;99.90;;;;;;5084790;28;20011;-64
2022/09/03 07:28:57;;;;;;;0.55;0.55;;;11.60;99.90;;;;;;5085757;28;20052;-66
2022/09/03 07:31:38;;;;;;;2.05;0.80;;;11.70;99.90;;;;;;5087559;28;20036;-64
2022/09/03 07:34:08;;;;;;;1.67;0.60;;;11.80;99.90;;;;;;5089429;28;20040;-67
2022/09/03 07:36:37;;;;;;;;;;;11.80;99.90;;;;;;5080760;28;20140;-67
2022/09/03 07:39:04;;;;;;;2.25;0.90;;;12.00;99.90;;;;;;5088691;28;19923;-64
2022/09/03 07:41:32;;;;;;;1.75;0.68;;;12.10;99.90;;;;;;5070127;28;20078;-70
2022/09/03 07:44:04;;;;;;;2.88;1.05;;;12.20;99.90;;;;;;5074457;28;20116;-64
2022/09/03 07:46:34;;;;;;;1.67;0.63;;;12.30;99.90;;;;;;5087655;28;20770;-65
2022/09/03 07:49:01;;;;;;;3.33;1.10;;;12.50;99.90;;;;;;5076200;28;20060;-64
2022/09/03 07:51:31;;;;;;;2.38;0.47;;;12.70;99.90;;;;;;5086254;28;20439;-67
2022/09/03 07:54:04;;;;;;;0.70;0.45;;;12.80;99.90;;;;;;5087339;28;20135;-64
2022/09/03 07:56:33;;;;;;;1.55;0.40;;;13.00;99.90;;;;;;5087338;28;20143;-64
2022/09/03 07:59:01;;;;;;;0.40;0.40;;;13.10;99.90;;;;;;5077638;28;20047;-65
2022/09/03 08:01:32;;;;;;;0.93;0.65;;;13.10;99.90;;;;;;5077123;28;20118;-65
2022/09/03 08:04:01;;;;;;;0.52;0.35;;;13.30;99.90;;;;;;5077416;28;20044;-64
2022/09/03 08:06:29;;;;;;;0.50;0.50;;;13.40;99.90;;;;;;5086644;28;20056;-64
2022/09/03 08:08:58;;;;;;;1.63;0.30;;;13.40;99.90;;;;;;5083559;27;20093;-64
2022/09/03 08:11:35;;;;;;;0.70;0.20;;;13.40;99.90;;;;;;5080399;28;20054;-64
2022/09/03 08:14:05;;;;;;;0.52;0.30;;;13.40;99.90;;;;;;5071853;28;20435;-70
2022/09/03 08:16:47;;;;;;;0.45;0.28;;;13.50;99.90;;;;;;5090922;27;20044;-69
2022/09/03 08:19:17;;;;;;;0.40;0.30;;;13.50;99.90;;;;;;5085516;28;20055;-67
2022/09/03 08:21:44;;;;;;;1.65;0.20;;;13.50;99.90;;;;;;5076366;28;20114;-65
2022/09/03 08:24:14;;;;;;;0.77;0.10;;;13.50;99.90;;;;;;5081649;28;20402;-64
2022/09/03 08:26:42;;;;;;;1.05;0.20;;;13.60;99.90;;;;;;5077994;28;20391;-69
2022/09/03 08:29:16;;;;;;;0.40;0.40;;;13.70;99.90;;;;;;5066823;28;20116;-70
2022/09/03 08:31:43;;;;;;;0.65;0.20;;;13.70;99.90;;;;;;5082998;28;20044;-65
2022/09/03 08:34:12;;;;;;;0.40;0.10;;;13.80;99.90;;;;;;5086507;28;20048;-65
2022/09/03 08:36:42;;;;;;;0.30;0.30;;;13.90;99.90;;;;;;5086871;28;20068;-68
2022/09/03 08:39:10;;;;;;;0.30;0.28;;;14.00;99.90;;;;;;5090972;28;20083;-66
2022/09/03 08:41:52;;;;;;;0.98;0.20;;;14.10;99.90;;;;;;5072418;28;20466;-64
2022/09/03 08:44:47;;;;;;;0.65;0.30;;;14.20;99.90;;;;;;5078379;28;20106;-66
2022/09/03 08:47:29;;;;;;;0.30;0.30;;;14.10;99.90;;;;;;5088301;28;20044;-64
2022/09/03 08:50:20;;;;;;;0.20;0.20;;;14.20;99.90;;;;;;5086588;28;20124;-68
2022/09/03 08:53:12;;;;;;;0.28;0.17;;;14.30;99.90;;;;;;5087692;28;20044;-65
2022/09/03 08:55:54;;;;;;;0.20;0.20;;;14.40;99.90;;;;;;5062159;28;20048;-65
2022/09/03 08:58:25;;;;;;;0.40;0.25;;;14.40;99.90;;;;;;5089193;28;20044;-70
2022/09/03 09:01:05;;;;;;;0.13;0.13;;;14.40;99.90;;;;;;5084888;28;20044;-69
2022/09/03 09:03:51;;;;;;;0.45;0.20;;;14.50;99.90;;;;;;5077350;28;20651;-71
2022/09/03 09:06:49;;;;;;;0.28;0.28;;;14.50;99.90;;;;;;5087417;28;20043;-65
2022/09/03 09:09:47;;;;;;;0.63;0.63;;;14.50;99.90;;;;;;5068371;28;20044;-67
2022/09/03 09:12:20;;;;;;;2.10;0.40;;;14.50;99.90;;;;;;5066309;28;20051;-65
2022/09/03 09:15:09;;;;;;;0.20;0.20;;;14.50;99.90;;;;;;5056339;28;20080;-65
2022/09/03 09:17:52;;;;;;;0.73;0.50;;;14.50;99.90;;;;;;5063068;28;20048;-68
2022/09/03 09:20:40;;;;;;;0.28;0.20;;;14.60;99.90;;;;;;5063882;28;20389;-71
2022/09/03 09:23:25;;;;;;;0.70;0.20;;;14.70;99.90;;;;;;5067845;28;20044;-67
2022/09/03 09:25:54;;;;;;;0.20;0.20;;;14.70;99.90;;;;;;5069715;28;20770;-65
2022/09/03 09:28:23;;;;;;;0.35;0.20;;;14.70;99.90;;;;;;5066441;28;20068;-66
2022/09/03 09:30:54;;;;;;;0.20;0.20;;;14.70;99.90;;;;;;5067727;28;20036;-66
2022/09/03 09:33:21;;;;;;;;;;;14.80;99.90;;;;;;5080048;28;20453;-66
2022/09/03 09:35:48;;;;;;;0.20;0.10;;;14.80;99.90;;;;;;5064380;28;20435;-71
2022/09/03 09:38:30;;;;;;;0.55;0.30;;;14.80;99.90;;;;;;5069178;28;20048;-70
2022/09/03 09:41:14;;;;;;;0.10;0.10;;;14.90;99.90;;;;;;5067625;28;20086;-66
2022/09/03 09:43:42;;;;;;;0.43;0.40;;;14.90;99.90;;;;;;5061652;28;20445;-65
2022/09/03 09:46:26;;;;;;;0.43;0.15;;;15.00;99.90;;;;;;5069158;28;20140;-66
2022/09/03 09:48:56;;;;;;;0.25;0.10;;;15.10;99.90;;;;;;5066497;28;20051;-68
2022/09/03 09:51:31;;;;;;;0.17;0.17;;;15.10;99.90;;;;;;5068352;28;20459;-66
2022/09/03 09:54:19;;;;;;;0.35;0.35;;;15.10;99.90;;;;;;5066781;28;20423;-80
2022/09/03 09:56:57;;;;;;;0.10;0.10;;;15.00;99.90;;;;;;5081844;28;20040;-68
2022/09/03 09:59:24;;;;;;;0.10;0.10;;;15.10;99.90;;;;;;5065715;28;20056;-69
2022/09/03 10:02:05;;;;;;;0.65;0.10;;;15.00;99.90;;;;;;5067513;28;20066;-71
2022/09/03 10:04:33;;;;;;;1.40;0.20;;;15.00;99.90;;;;;;5067477;28;20052;-65
2022/09/03 10:07:30;;;;;;;0.22;0.15;;;15.00;99.90;;;;;;5067188;28;20127;-67
2022/09/03 10:10:19;;;;;;;0.20;0.20;;;14.90;99.90;;;;;;5062306;28;20135;-69
2022/09/03 10:13:00;;;;;;;0.38;0.20;;;14.90;99.90;;;;;;5066290;28;20064;-70
2022/09/03 10:15:43;;;;;;;0.10;0.10;;;15.10;99.90;;;;;;5063192;28;20048;-68
2022/09/03 10:18:43;;;;;;;1.70;0.30;;;15.10;99.90;;;;;;5067444;28;20167;-68
2022/09/03 10:21:23;;;;;;;1.05;0.30;;;15.30;99.90;;;;;;5054195;28;20138;-68
2022/09/03 10:24:15;;;;;;;0.32;0.30;;;15.50;99.90;;;;;;5067326;28;20072;-66
2022/09/03 10:26:46;;;;;;;0.10;0.10;;;15.50;99.90;;;;;;5066462;28;20055;-70
2022/09/03 10:29:22;;;;;;;0.40;0.30;;;15.50;99.90;;;;;;5067403;28;20044;-67
2022/09/03 10:32:21;;;;;;;1.80;0.20;;;15.50;99.90;;;;;;5061250;28;20460;-71
2022/09/03 10:35:11;;;;;;;0.30;0.20;;;15.50;99.90;;;;;;5050118;28;20076;-65
2022/09/03 10:37:48;;;;;;;0.20;0.20;;;15.50;99.90;;;;;;5067208;28;20394;-65
2022/09/03 10:40:23;;;;;;;0.43;0.40;;;15.50;99.90;;;;;;5062204;28;20356;-75
2022/09/03 10:43:03;;;;;;;0.25;0.20;;;15.40;99.90;;;;;;5066428;28;20112;-68
2022/09/03 10:45:53;;;;;;;0.75;0.32;;;15.50;99.90;;;;;;5068381;28;20041;-70
2022/09/03 10:48:44;;;;;;;0.22;0.22;;;15.60;99.90;;;;;;5066025;28;20052;-68
2022/09/03 10:51:15;;;;;;;0.10;0.10;;;15.60;99.90;;;;;;5066366;28;20049;-68
2022/09/03 10:53:57;;;;;;;0.30;0.20;;;15.60;99.90;;;;;;5065965;28;20395;-69
2022/09/03 10:56:55;;;;;;;0.30;0.28;;;15.70;99.90;;;;;;5051981;28;20049;-68
2022/09/03 10:59:55;;;;;;;0.10;0.10;;;15.80;99.90;;;;;;5049519;28;20040;-67
2022/09/03 11:02:53;;;;;;;0.65;0.20;;;15.70;99.90;;;;;;5060822;28;20060;-67
2022/09/03 11:05:22;;;;;;;0.50;0.20;;;15.60;99.90;;;;;;5074679;28;20055;-65
2022/09/03 11:08:02;;;;;;;0.13;0.13;;;15.50;99.90;;;;;;5067179;28;20041;-66
2022/09/03 11:10:31;;;;;;;0.50;0.20;;;15.60;99.90;;;;;;5059714;28;20444;-70
2022/09/03 11:13:08;;;;;;;0.22;0.22;;;15.70;99.90;;;;;;5059402;28;20116;-65
2022/09/03 11:15:44;;;;;;;0.40;0.25;;;15.60;99.90;;;;;;5067881;28;20127;-71
2022/09/03 11:18:37;;;;;;;0.73;0.30;;;15.70;99.90;;;;;;5065310;28;20052;-65
2022/09/03 11:21:11;;;;;;;0.22;0.15;;;15.60;99.90;;;;;;5065625;28;20156;-65
2022/09/03 11:23:49;;;;;;;2.95;0.35;;;15.60;99.90;;;;;;5065598;28;20048;-67
2022/09/03 11:26:25;;;;;;;0.35;0.10;;;15.70;99.90;;;;;;5064011;28;20040;-72
2022/09/03 11:29:00;;;;;;;0.15;0.15;;;15.70;99.90;;;;;;5063916;28;20151;-65
2022/09/03 11:31:49;;;;;;;0.25;0.25;;;15.60;99.90;;;;;;5065994;28;20040;-70
2022/09/03 11:34:30;;;;;;;0.40;0.28;;;15.50;99.90;;;;;;5064728;28;20044;-69
2022/09/03 11:37:23;;;;;;;0.25;0.13;;;15.60;99.90;;;;;;5062464;28;20090;-70
2022/09/03 11:40:28;;;;;;;0.40;0.20;;;15.70;99.90;;;;;;5063267;28;20120;-65
2022/09/03 11:43:05;;;;;;;0.20;0.20;;;15.60;99.90;;;;;;5060554;28;20118;-67
2022/09/03 11:45:33;;;;;;;0.35;0.32;;;15.60;99.90;;;;;;5060439;28;20111;-67
2022/09/03 11:48:00;;;;;;;1.00;0.30;;;15.90;99.90;;;;;;5057212;28;20151;-66
2022/09/03 11:50:29;;;;;;;0.30;0.30;;;16.00;99.90;;;;;;5063647;28;20114;-68
2022/09/03 11:53:23;;;;;;;0.70;0.70;;;16.10;99.90;;;;;;5064838;28;20047;-67
2022/09/03 11:55:58;;;;;;;0.30;0.20;;;16.10;99.90;;;;;;5067020;28;20066;-65
2022/09/03 11:58:41;;;;;;;0.77;0.30;;;16.10;99.90;;;;;;5066910;28;20067;-67
2022/09/03 12:01:11;;;;;;;0.40;0.10;;;16.00;99.90;;;;;;5070222;28;20032;-76
2022/09/03 12:03:58;;;;;;;0.20;0.20;;;16.10;99.90;;;;;;5086506;28;20036;-66
2022/09/03 12:06:36;;;;;;;0.57;0.57;;;16.10;99.90;;;;;;5077848;28;20135;-73
2022/09/03 12:09:44;;;;;;;0.32;0.30;;;16.20;99.90;;;;;;5082901;28;20070;-73
2022/09/03 12:12:41;;;;;;;0.55;0.30;;;16.30;99.90;;;;;;5067893;28;20047;-69
2022/09/03 12:15:45;;;;;;;0.10;0.10;;;16.30;99.90;;;;;;5067034;28;20086;-72
2022/09/03 12:18:24;;;;;;;0.40;0.30;;;16.50;99.90;;;;;;5079223;28;20131;-65
2022/09/03 12:20:51;;;;;;;0.47;0.20;;;16.40;99.90;;;;;;5089280;28;20139;-66
2022/09/03 12:23:31;;;;;;;0.75;0.20;;;16.40;99.90;;;;;;5088214;28;20093;-66
2022/09/03 12:26:05;;;;;;;0.73;0.30;;;16.50;99.90;;;;;;5089803;28;20064;-71
2022/09/03 12:28:38;;;;;;;0.43;0.20;;;16.40;99.90;;;;;;5087558;28;20245;-67
2022/09/03 12:31:24;;;;;;;2.40;0.28;;;16.30;99.90;;;;;;5086850;28;20507;-65
2022/09/03 12:33:58;;;;;;;0.20;0.10;;;16.40;99.90;;;;;;5089124;28;20040;-66
2022/09/03 12:36:35;;;;;;;1.40;0.20;;;16.30;99.90;;;;;;5086471;28;20375;-73
2022/09/03 12:39:24;;;;;;;0.22;0.20;;;16.40;99.90;;;;;;5075214;28;20098;-70
2022/09/03 12:42:19;;;;;;;0.40;0.30;;;16.10;99.90;;;;;;5084241;28;20063;-66
2022/09/03 12:44:46;;;;;;;0.30;0.30;;;15.90;99.90;;;;;;5080179;28;20132;-65
2022/09/03 12:47:16;;;;;;;0.60;0.20;;;16.00;99.90;;;;;;5090105;28;20040;-67
2022/09/03 12:50:26;;;;;;;2.22;0.30;;;16.00;99.90;;;;;;5088951;28;20074;-66
2022/09/03 12:52:58;;;;;;;1.25;0.35;;;15.90;99.90;;;;;;5088485;28;22494;-72
2022/09/03 12:55:35;;;;;;;1.55;0.20;;;15.80;99.90;;;;;;5089527;28;20477;-65
2022/09/03 12:58:23;;;;;;;1.00;0.28;;;15.90;99.90;;;;;;5087902;28;20048;-69
2022/09/03 13:00:56;;;;;;;0.40;0.30;;;16.20;99.90;;;;;;5088242;28;20044;-68
2022/09/03 13:03:33;;;;;;;0.30;0.20;;;16.60;99.90;;;;;;5089796;28;20040;-68
2022/09/03 13:06:09;;;;;;;0.25;0.25;;;16.90;99.80;;;;;;5089704;28;20109;-65
2022/09/03 13:08:44;;;;;;;0.63;0.20;;;16.70;99.70;;;;;;5079373;28;20048;-65
2022/09/03 13:11:16;;;;;;;0.55;0.30;;;16.50;99.90;;;;;;5085253;28;20394;-67
2022/09/03 13:14:04;;;;;;;5.05;0.22;;;16.40;99.90;;;;;;5089481;28;20052;-68
2022/09/03 13:16:37;;;;;;;0.30;0.30;;;16.20;99.90;;;;;;5088741;28;20040;-67
2022/09/03 13:19:41;;;;;;;0.20;0.20;;;16.20;99.90;;;;;;5086605;28;20079;-68
2022/09/03 13:22:11;;;;;;;0.20;0.20;;;16.20;99.90;;;;;;5088526;28;20071;-66
2022/09/03 13:24:46;;;;;;;1.15;0.25;;;16.10;99.90;;;;;;5087007;28;20342;-68
2022/09/03 13:27:36;;;;;;;0.10;0.10;;;16.20;99.90;;;;;;5086954;28;20368;-69
2022/09/03 13:30:10;;;;;;;2.28;0.75;;;16.40;99.90;;;;;;5083058;28;20043;-69
2022/09/03 13:32:39;;;;;;;0.20;0.20;;;16.40;99.90;;;;;;5086668;28;20470;-66
2022/09/03 13:35:12;;;;;;;0.45;0.30;;;16.20;99.90;;;;;;5088105;28;20067;-68
2022/09/03 13:37:54;;;;;;;0.20;0.13;;;16.10;99.90;;;;;;5096220;27;20606;-66
2022/09/03 13:40:36;;;;;;;0.10;0.10;;;16.10;99.90;;;;;;5087993;28;20040;-77